Time;durP1;ratioP1;P1;durP2;ratioP2;P2;SDS_P1;SDS_P2;PMS_P1;PMS_P2;Temp;Humidity;BMP_temperature;BMP_pressure;BME280_temperature;BME280_humidity;BME280_pressure;Samples;Min_cycle;Max_cycle;Signal;HPM_P1;HPM_P2
2022/04/16 00:01:19;;;;;;;5.00;4.60;;;;;;;;;;4942329;29;20043;-88
2022/04/16 00:03:45;;;;;;;5.28;4.82;;;;;;;;;;4942280;29;20024;-88
2022/04/16 00:06:10;;;;;;;4.75;4.35;;;;;;;;;;4959361;29;20027;-88
2022/04/16 00:08:36;;;;;;;4.38;3.97;;;;;;;;;;4959261;29;20050;-88
2022/04/16 00:11:01;;;;;;;4.63;4.22;;;;;;;;;;4959612;29;20081;-87
2022/04/16 00:13:27;;;;;;;5.65;5.15;;;;;;;;;;4942188;29;20055;-88
2022/04/16 00:15:55;;;;;;;4.70;4.30;;;;;;;;;;4959499;29;20031;-87
2022/04/16 00:18:21;;;;;;;4.60;4.30;;;;;;;;;;4959442;29;20078;-88
2022/04/16 00:20:51;;;;;;;4.20;3.90;;;;;;;;;;4926201;29;20031;-88
2022/04/16 00:23:19;;;;;;;2.70;2.58;;;;;;;;;;4959165;29;20122;-88
2022/04/16 00:25:47;;;;;;;5.65;4.93;;;;;;;;;;4959361;29;20024;-87
2022/04/16 00:28:12;;;;;;;3.40;3.15;;;;;;;;;;4941796;29;20035;-87
2022/04/16 00:30:39;;;;;;;11.77;7.53;;;;;;;;;;4941759;29;20046;-87
2022/04/16 00:33:05;;;;;;;2.97;2.70;;;;;;;;;;4959410;29;20062;-87
2022/04/16 00:35:31;;;;;;;2.40;2.20;;;;;;;;;;4958809;29;20024;-87
2022/04/16 00:37:56;;;;;;;3.08;2.88;;;;;;;;;;4941605;29;20549;-86
2022/04/16 00:40:22;;;;;;;3.60;3.40;;;;;;;;;;4958630;29;20549;-86
2022/04/16 00:42:47;;;;;;;3.50;3.30;;;;;;;;;;4958986;29;20037;-86
2022/04/16 00:45:13;;;;;;;2.83;2.63;;;;;;;;;;4973617;28;20395;-87
2022/04/16 00:47:39;;;;;;;3.13;2.92;;;;;;;;;;4941453;29;20505;-86
2022/04/16 00:50:05;;;;;;;3.42;3.13;;;;;;;;;;4925490;29;20034;-86
2022/04/16 00:52:30;;;;;;;3.35;3.15;;;;;;;;;;4941738;29;20043;-86
2022/04/16 00:54:56;;;;;;;3.58;3.35;;;;;;;;;;4958802;29;20023;-86
2022/04/16 00:57:21;;;;;;;3.15;2.90;;;;;;;;;;4958453;29;20035;-86
2022/04/16 00:59:47;;;;;;;3.30;3.00;;;;;;;;;;4941599;29;20146;-87
2022/04/16 01:02:12;;;;;;;3.90;3.60;;;;;;;;;;4941181;29;20391;-87
2022/04/16 01:04:38;;;;;;;3.72;3.42;;;;;;;;;;4973232;28;20034;-86
2022/04/16 01:07:05;;;;;;;3.30;3.10;;;;;;;;;;4941358;29;20055;-87
2022/04/16 01:09:31;;;;;;;3.20;3.00;;;;;;;;;;4958496;29;20463;-87
2022/04/16 01:11:56;;;;;;;3.13;2.92;;;;;;;;;;4958152;28;20070;-86
2022/04/16 01:14:21;;;;;;;3.08;2.88;;;;;;;;;;4940908;29;20118;-87
2022/04/16 01:16:47;;;;;;;3.15;2.95;;;;;;;;;;4940862;29;20027;-87
2022/04/16 01:19:12;;;;;;;3.45;3.15;;;;;;;;;;4958069;29;20027;-86
2022/04/16 01:21:39;;;;;;;3.83;3.42;;;;;;;;;;4958036;29;20090;-87
2022/04/16 01:24:05;;;;;;;3.50;3.20;;;;;;;;;;4925480;29;20027;-87
2022/04/16 01:26:30;;;;;;;3.50;3.30;;;;;;;;;;4958190;29;20036;-87
2022/04/16 01:28:56;;;;;;;2.70;2.50;;;;;;;;;;4940996;29;20023;-87
2022/04/16 01:31:21;;;;;;;3.13;2.90;;;;;;;;;;4972989;28;20085;-87
2022/04/16 01:33:47;;;;;;;2.78;2.58;;;;;;;;;;4958405;29;20027;-87
2022/04/16 01:36:13;;;;;;;2.60;2.40;;;;;;;;;;4957729;29;20387;-87
2022/04/16 01:38:38;;;;;;;2.15;2.00;;;;;;;;;;4924648;29;20374;-87
2022/04/16 01:41:04;;;;;;;1.77;1.67;;;;;;;;;;4924470;29;20039;-87
2022/04/16 01:43:30;;;;;;;2.30;2.20;;;;;;;;;;4957943;29;20035;-86
2022/04/16 01:45:56;;;;;;;1.67;1.58;;;;;;;;;;4940384;29;20057;-86
2022/04/16 01:48:22;;;;;;;1.80;1.70;;;;;;;;;;4957697;29;20027;-86
2022/04/16 01:50:51;;;;;;;1.92;1.83;;;;;;;;;;4957776;29;20035;-87
2022/04/16 01:53:16;;;;;;;2.15;2.05;;;;;;;;;;4957996;29;20086;-87
2022/04/16 01:55:42;;;;;;;1.98;1.88;;;;;;;;;;4957379;29;20039;-86
2022/04/16 01:58:07;;;;;;;1.85;1.75;;;;;;;;;;4957659;29;20059;-86
2022/04/16 02:00:35;;;;;;;1.90;1.80;;;;;;;;;;4957578;29;20132;-87
2022/04/16 02:03:00;;;;;;;1.80;1.70;;;;;;;;;;4957508;29;20486;-86
2022/04/16 02:05:27;;;;;;;1.27;1.20;;;;;;;;;;4957217;29;20032;-76
2022/04/16 02:07:54;;;;;;;1.60;1.50;;;;;;;;;;4939926;29;20471;-76
2022/04/16 02:10:19;;;;;;;2.15;1.20;;;;;;;;;;4940264;29;20031;-76
2022/04/16 02:12:44;;;;;;;2.13;1.40;;;;;;;;;;4957070;29;20034;-76
2022/04/16 02:15:10;;;;;;;1.52;1.42;;;;;;;;;;4957296;29;20034;-76
2022/04/16 02:17:39;;;;;;;1.48;1.40;;;;;;;;;;4924736;29;20110;-76
2022/04/16 02:20:06;;;;;;;1.27;1.17;;;;;;;;;;4939705;29;20463;-76
2022/04/16 02:22:37;;;;;;;1.50;1.40;;;;;;;;;;4956636;28;20035;-76
2022/04/16 02:25:04;;;;;;;1.73;1.63;;;;;;;;;;4956837;29;20042;-76
2022/04/16 02:27:29;;;;;;;1.65;1.55;;;;;;;;;;4957032;29;20106;-76
2022/04/16 02:29:54;;;;;;;1.65;1.55;;;;;;;;;;4940208;29;20098;-76
2022/04/16 02:32:19;;;;;;;1.70;1.60;;;;;;;;;;4956726;29;20023;-76
2022/04/16 02:34:45;;;;;;;1.67;1.58;;;;;;;;;;4939408;29;20035;-76
2022/04/16 02:37:10;;;;;;;1.63;1.52;;;;;;;;;;4939372;29;20020;-76
2022/04/16 02:39:35;;;;;;;1.40;1.30;;;;;;;;;;4956835;29;20035;-76
2022/04/16 02:42:01;;;;;;;1.15;1.15;;;;;;;;;;4939150;29;20059;-76
2022/04/16 02:47:14;;;;;;;1.75;1.65;;;;;;;;;;4956592;29;20032;-76
2022/04/16 02:49:39;;;;;;;1.90;1.55;;;;;;;;;;4956890;29;20041;-76
2022/04/16 02:52:05;;;;;;;1.55;1.45;;;;;;;;;;4939110;29;20039;-76
2022/04/16 02:54:31;;;;;;;1.77;1.67;;;;;;;;;;4956582;29;20447;-76
2022/04/16 02:56:56;;;;;;;1.80;1.70;;;;;;;;;;4939057;29;20031;-76
2022/04/16 02:59:21;;;;;;;2.10;1.88;;;;;;;;;;4954967;29;20046;-76
2022/04/16 03:01:47;;;;;;;1.77;1.67;;;;;;;;;;4939931;29;20031;-76
2022/04/16 03:04:12;;;;;;;2.20;2.10;;;;;;;;;;4956140;29;20031;-76
2022/04/16 03:06:37;;;;;;;1.65;1.55;;;;;;;;;;4938856;29;20027;-76
2022/04/16 03:09:03;;;;;;;1.80;1.70;;;;;;;;;;4922999;29;20091;-76
2022/04/16 03:11:28;;;;;;;1.88;1.77;;;;;;;;;;4956021;29;20027;-76
2022/04/16 03:13:54;;;;;;;1.70;1.60;;;;;;;;;;4956000;29;20030;-76
2022/04/16 03:19:04;;;;;;;1.88;1.77;;;;;;;;;;4938637;29;20126;-76
2022/04/16 03:21:29;;;;;;;1.35;1.33;;;;;;;;;;4956168;29;20019;-76
2022/04/16 03:23:55;;;;;;;1.50;1.40;;;;;;;;;;4956153;29;20038;-76
2022/04/16 03:26:20;;;;;;;1.70;1.60;;;;;;;;;;4956052;29;20078;-76
2022/04/16 03:28:45;;;;;;;1.33;1.23;;;;;;;;;;4955958;29;20110;-76
2022/04/16 03:31:11;;;;;;;1.75;1.60;;;;;;;;;;4956033;29;20034;-76
2022/04/16 03:33:36;;;;;;;1.63;1.52;;;;;;;;;;4938065;29;20035;-75
2022/04/16 03:36:02;;;;;;;1.40;1.40;;;;;;;;;;4922375;29;20057;-75
2022/04/16 03:38:27;;;;;;;1.45;1.42;;;;;;;;;;4955630;29;20089;-75
2022/04/16 03:40:52;;;;;;;1.40;1.30;;;;;;;;;;4955660;29;20051;-75
2022/04/16 03:43:19;;;;;;;1.75;1.33;;;;;;;;;;4955602;29;20117;-75
2022/04/16 03:45:45;;;;;;;1.08;1.08;;;;;;;;;;4955573;29;20027;-75
2022/04/16 03:48:11;;;;;;;1.20;0.98;;;;;;;;;;4938198;29;20042;-75
2022/04/16 03:50:36;;;;;;;1.00;1.00;;;;;;;;;;4938329;29;20022;-75
2022/04/16 03:53:02;;;;;;;1.05;1.05;;;;;;;;;;4955508;29;20031;-75
2022/04/16 04:00:59;;;;;;;1.40;1.30;;;;;;;;;;4955435;29;20046;-75
2022/04/16 04:03:25;;;;;;;1.10;1.10;;;;;;;;;;4955388;29;20023;-75
2022/04/16 04:05:53;;;;;;;1.70;1.60;;;;;;;;;;4938602;29;20035;-76
2022/04/16 04:08:19;;;;;;;1.50;1.40;;;;;;;;;;4938111;29;20030;-76
2022/04/16 04:10:45;;;;;;;1.38;1.38;;;;;;;;;;4938179;29;20027;-76
2022/04/16 04:13:11;;;;;;;1.73;1.63;;;;;;;;;;4970284;28;20482;-76
2022/04/16 04:15:36;;;;;;;0.90;0.90;;;;;;;;;;4955305;29;20031;-76
2022/04/16 04:18:02;;;;;;;1.98;1.88;;;;;;;;;;4938163;29;20028;-76
2022/04/16 04:20:28;;;;;;;5.85;1.60;;;;;;;;;;4955508;29;20031;-76
2022/04/16 04:22:53;;;;;;;1.90;1.80;;;;;;;;;;4938137;29;20030;-76
2022/04/16 04:25:19;;;;;;;1.35;1.35;;;;;;;;;;4938010;29;20031;-75
2022/04/16 04:27:45;;;;;;;1.60;1.50;;;;;;;;;;4938024;29;20110;-75
2022/04/16 04:30:11;;;;;;;1.83;1.73;;;;;;;;;;4955447;29;20027;-75
2022/04/16 04:32:36;;;;;;;2.00;1.42;;;;;;;;;;4955421;29;20474;-75
2022/04/16 04:35:02;;;;;;;1.60;1.50;;;;;;;;;;4955414;29;20034;-76
2022/04/16 04:37:27;;;;;;;1.67;1.58;;;;;;;;;;4955392;29;20027;-76
2022/04/16 04:39:53;;;;;;;1.58;1.50;;;;;;;;;;4969906;28;20030;-76
2022/04/16 04:42:22;;;;;;;1.70;1.60;;;;;;;;;;4969798;28;20395;-76
2022/04/16 04:44:47;;;;;;;1.40;1.40;;;;;;;;;;4938334;28;20486;-76
2022/04/16 04:47:13;;;;;;;1.38;1.38;;;;;;;;;;4973206;28;20031;-76
2022/04/16 04:49:38;;;;;;;1.15;1.15;;;;;;;;;;4959162;29;20023;-76
2022/04/16 04:52:03;;;;;;;1.45;1.45;;;;;;;;;;4958573;29;20019;-76
2022/04/16 04:54:29;;;;;;;1.60;1.52;;;;;;;;;;4958525;29;20467;-76
2022/04/16 04:56:54;;;;;;;1.73;1.63;;;;;;;;;;4925464;29;20015;-76
2022/04/16 04:59:19;;;;;;;1.77;1.67;;;;;;;;;;4958720;29;20499;-76
2022/04/16 05:01:45;;;;;;;1.85;1.75;;;;;;;;;;4958683;29;20050;-76
2022/04/16 05:04:10;;;;;;;1.80;1.70;;;;;;;;;;4959145;29;20093;-76
2022/04/16 05:06:35;;;;;;;1.90;1.80;;;;;;;;;;4958574;29;20058;-76
2022/04/16 05:09:01;;;;;;;2.67;2.50;;;;;;;;;;4941765;29;20031;-76
2022/04/16 05:11:26;;;;;;;2.17;2.08;;;;;;;;;;4941017;29;20498;-76
2022/04/16 05:13:51;;;;;;;2.47;2.38;;;;;;;;;;4958155;29;20463;-76
2022/04/16 05:16:16;;;;;;;2.20;2.10;;;;;;;;;;4958123;29;20019;-76
2022/04/16 05:18:42;;;;;;;2.30;2.20;;;;;;;;;;4958367;29;20023;-76
2022/04/16 05:21:07;;;;;;;2.35;2.15;;;;;;;;;;4958011;29;20023;-76
2022/04/16 05:23:32;;;;;;;2.00;1.90;;;;;;;;;;4972916;28;20110;-76
2022/04/16 05:25:58;;;;;;;2.38;2.28;;;;;;;;;;4958496;29;20371;-76
2022/04/16 05:28:23;;;;;;;2.80;2.60;;;;;;;;;;4940689;29;20091;-76
2022/04/16 05:30:48;;;;;;;4.20;3.90;;;;;;;;;;4940640;29;20074;-76
2022/04/16 05:35:59;;;;;;;15.55;12.45;;;;;;;;;;4958011;29;20031;-76
2022/04/16 05:38:24;;;;;;;6.95;6.13;;;;;;;;;;4957986;28;20030;-76
2022/04/16 05:40:49;;;;;;;19.30;11.90;;;;;;;;;;4957880;29;20039;-76
2022/04/16 05:43:15;;;;;;;16.40;9.20;;;;;;;;;;4957880;29;20071;-76
2022/04/16 05:45:40;;;;;;;7.90;6.75;;;;;;;;;;4957864;29;20027;-76
2022/04/16 05:48:06;;;;;;;3.33;3.13;;;;;;;;;;4957779;29;20122;-76
2022/04/16 05:50:31;;;;;;;3.03;2.83;;;;;;;;;;4957838;29;20023;-76
2022/04/16 05:52:57;;;;;;;3.63;3.42;;;;;;;;;;4957753;29;20034;-76
2022/04/16 05:55:22;;;;;;;5.72;5.32;;;;;;;;;;4940328;29;20032;-76
2022/04/16 05:57:49;;;;;;;9.27;8.60;;;;;;;;;;4956480;28;20179;-76
2022/04/16 06:00:14;;;;;;;1.92;1.83;;;;;;;;;;4940219;29;20034;-76
2022/04/16 06:02:40;;;;;;;2.63;2.53;;;;;;;;;;4957846;29;20089;-76
2022/04/16 06:05:06;;;;;;;2.67;2.47;;;;;;;;;;4940023;29;20074;-76
2022/04/16 06:07:32;;;;;;;2.05;1.95;;;;;;;;;;4957401;29;20031;-76
2022/04/16 06:09:57;;;;;;;4.78;4.47;;;;;;;;;;4940026;29;20352;-76
2022/04/16 06:12:25;;;;;;;4.60;4.30;;;;;;;;;;4957393;29;20034;-76
2022/04/16 06:14:51;;;;;;;6.90;6.43;;;;;;;;;;4940925;29;20155;-76
2022/04/16 06:17:17;;;;;;;9.18;6.55;;;;;;;;;;4957014;29;20031;-76
2022/04/16 06:19:42;;;;;;;3.80;3.60;;;;;;;;;;4939771;29;20530;-76
2022/04/16 06:22:10;;;;;;;5.78;5.38;;;;;;;;;;4971891;28;20441;-76
2022/04/16 06:24:39;;;;;;;3.30;3.10;;;;;;;;;;4957188;29;20027;-76
2022/04/16 06:27:04;;;;;;;86.05;47.10;;;;;;;;;;4956794;29;20035;-76
2022/04/16 06:29:29;;;;;;;296.92;151.32;;;;;;;;;;4939494;29;20093;-76
2022/04/16 06:31:55;;;;;;;41.47;24.33;;;;;;;;;;4956986;29;20023;-76
2022/04/16 06:34:23;;;;;;;139.63;72.57;;;;;;;;;;4956985;29;20352;-76
2022/04/16 06:36:49;;;;;;;324.52;186.60;;;;;;;;;;4939371;29;20042;-76
2022/04/16 06:39:14;;;;;;;355.38;208.75;;;;;;;;;;4956870;29;20027;-76
2022/04/16 06:41:40;;;;;;;435.50;249.93;;;;;;;;;;4939084;29;20047;-76
2022/04/16 06:44:06;;;;;;;690.67;374.75;;;;;;;;;;4956801;29;20035;-76
2022/04/16 06:46:32;;;;;;;160.65;88.28;;;;;;;;;;4956712;29;20074;-76
2022/04/16 06:48:58;;;;;;;61.50;31.10;;;;;;;;;;4956633;29;20035;-76
2022/04/16 06:51:24;;;;;;;159.02;92.60;;;;;;;;;;4923313;29;20447;-76
2022/04/16 06:53:49;;;;;;;392.92;153.77;;;;;;;;;;4956599;29;20447;-76
2022/04/16 06:56:14;;;;;;;12.52;9.27;;;;;;;;;;4956294;29;20030;-76
2022/04/16 06:58:40;;;;;;;554.65;282.90;;;;;;;;;;4938997;29;20553;-76
2022/04/16 07:01:05;;;;;;;28.65;15.93;;;;;;;;;;4956223;29;20027;-76
2022/04/16 07:03:30;;;;;;;389.27;170.43;;;;;;;;;;4938959;29;20027;-76
2022/04/16 07:05:56;;;;;;;77.90;34.38;;;;;;;;;;4939213;29;20383;-76
2022/04/16 07:08:21;;;;;;;289.63;154.07;;;;;;;;;;4956055;28;20039;-76
2022/04/16 07:10:46;;;;;;;25.00;19.23;;;;;;;;;;4939401;29;20114;-76
2022/04/16 07:13:12;;;;;;;144.15;55.03;;;;;;;;;;4955943;29;20038;-76
2022/04/16 07:15:38;;;;;;;11.63;9.85;;;;;;;;;;4955978;29;20023;-76
2022/04/16 07:18:04;;;;;;;19.77;14.10;;;;;;;;;;4922988;29;20042;-76
2022/04/16 07:20:29;;;;;;;78.28;29.50;;;;;;;;;;4970803;28;20075;-76
2022/04/16 07:22:55;;;;;;;1999.90;814.88;;;;;;;;;;4956131;29;20550;-76
2022/04/16 07:25:21;;;;;;;1244.93;510.10;;;;;;;;;;4956071;29;20027;-76
2022/04/16 07:27:47;;;;;;;9.10;8.05;;;;;;;;;;4938646;29;20039;-76
2022/04/16 07:30:13;;;;;;;1512.32;451.60;;;;;;;;;;4956258;29;20465;-76
2022/04/16 07:32:39;;;;;;;1999.90;778.80;;;;;;;;;;4955737;29;20180;-76
2022/04/16 07:35:05;;;;;;;1581.25;581.88;;;;;;;;;;4938457;29;20047;-76
2022/04/16 07:37:30;;;;;;;863.45;336.23;;;;;;;;;;4955875;29;20122;-76
2022/04/16 07:39:55;;;;;;;1134.78;396.77;;;;;;;;;;4938476;29;20023;-76
2022/04/16 07:42:24;;;;;;;712.75;253.70;;;;;;;;;;4955450;29;20047;-76
2022/04/16 07:44:49;;;;;;;420.45;169.45;;;;;;;;;;4922623;29;20038;-76
2022/04/16 07:47:15;;;;;;;283.20;104.20;;;;;;;;;;4970371;28;20031;-76
2022/04/16 07:49:40;;;;;;;238.48;83.68;;;;;;;;;;4955817;29;20027;-76
2022/04/16 07:52:06;;;;;;;292.85;114.57;;;;;;;;;;4938434;29;20505;-76
2022/04/16 07:54:31;;;;;;;324.45;131.68;;;;;;;;;;4955767;29;20450;-76
2022/04/16 07:56:57;;;;;;;49.40;21.05;;;;;;;;;;4955978;29;20027;-76
2022/04/16 07:59:22;;;;;;;264.23;100.32;;;;;;;;;;4955447;29;20031;-76
2022/04/16 08:01:47;;;;;;;12.27;7.15;;;;;;;;;;4955428;29;20190;-76
2022/04/16 08:04:13;;;;;;;218.32;74.30;;;;;;;;;;4954114;29;20038;-76
2022/04/16 08:06:38;;;;;;;231.85;76.38;;;;;;;;;;4955431;29;20031;-76
2022/04/16 08:09:03;;;;;;;302.77;96.28;;;;;;;;;;4955264;29;20423;-76
2022/04/16 08:11:30;;;;;;;14.27;8.13;;;;;;;;;;4938520;29;20031;-76
2022/04/16 08:13:55;;;;;;;252.65;92.55;;;;;;;;;;4938137;29;20451;-76
2022/04/16 08:16:20;;;;;;;430.75;170.85;;;;;;;;;;4970165;28;20043;-76
2022/04/16 08:18:46;;;;;;;398.85;131.13;;;;;;;;;;4955812;29;20074;-76
2022/04/16 08:21:11;;;;;;;260.80;82.47;;;;;;;;;;4957511;28;20035;-76
2022/04/16 08:23:43;;;;;;;162.25;51.65;;;;;;;;;;4942406;29;20459;-76
2022/04/16 08:26:10;;;;;;;417.60;146.32;;;;;;;;;;4959596;29;20113;-76
2022/04/16 08:28:36;;;;;;;213.02;68.78;;;;;;;;;;4958937;29;20106;-76
2022/04/16 08:31:03;;;;;;;667.95;292.05;;;;;;;;;;4925981;29;20031;-76
2022/04/16 08:33:28;;;;;;;427.95;204.23;;;;;;;;;;4942118;29;20094;-76
2022/04/16 08:35:54;;;;;;;540.60;258.48;;;;;;;;;;4958853;29;20401;-76
2022/04/16 08:38:19;;;;;;;593.15;273.83;;;;;;;;;;4959123;29;20027;-76
2022/04/16 08:40:45;;;;;;;224.00;96.43;;;;;;;;;;4973764;28;20047;-76
2022/04/16 08:43:10;;;;;;;196.25;74.85;;;;;;;;;;4958993;29;20587;-76
2022/04/16 08:45:37;;;;;;;204.18;91.68;;;;;;;;;;4958993;29;20525;-76
2022/04/16 08:48:02;;;;;;;268.58;115.10;;;;;;;;;;4958569;29;20028;-76
2022/04/16 08:50:28;;;;;;;197.60;73.38;;;;;;;;;;4941370;29;20034;-76
2022/04/16 08:52:54;;;;;;;546.45;229.98;;;;;;;;;;4941697;29;20098;-76
2022/04/16 08:55:19;;;;;;;244.10;107.47;;;;;;;;;;4958525;29;20035;-76
2022/04/16 08:57:44;;;;;;;235.93;81.85;;;;;;;;;;4958992;29;20023;-76
2022/04/16 09:00:13;;;;;;;110.78;45.28;;;;;;;;;;4958444;29;20118;-76
2022/04/16 09:02:49;;;;;;;509.63;221.35;;;;;;;;;;4958351;29;20045;-76
2022/04/16 09:05:17;;;;;;;243.18;93.45;;;;;;;;;;4958614;29;20118;-76
2022/04/16 09:07:46;;;;;;;188.32;81.40;;;;;;;;;;4958513;29;20029;-76
2022/04/16 09:10:12;;;;;;;257.08;111.90;;;;;;;;;;4958515;29;20074;-76
2022/04/16 09:12:38;;;;;;;300.52;152.70;;;;;;;;;;4941402;29;20371;-76
2022/04/16 09:15:04;;;;;;;10.13;9.23;;;;;;;;;;4958442;29;20035;-76
2022/04/16 09:17:31;;;;;;;139.32;68.95;;;;;;;;;;4958091;29;20019;-76
2022/04/16 09:19:57;;;;;;;68.00;41.33;;;;;;;;;;4958273;29;20039;-76
2022/04/16 09:22:32;;;;;;;86.05;50.15;;;;;;;;;;4958298;29;20023;-76
2022/04/16 09:24:58;;;;;;;157.45;81.97;;;;;;;;;;4957941;29;20081;-76
2022/04/16 09:27:23;;;;;;;161.10;91.40;;;;;;;;;;4941016;29;20031;-76
2022/04/16 09:29:49;;;;;;;169.32;84.95;;;;;;;;;;4941059;29;20024;-76
2022/04/16 09:32:24;;;;;;;68.18;40.45;;;;;;;;;;4956862;28;20020;-76
2022/04/16 09:34:50;;;;;;;371.00;198.18;;;;;;;;;;4958126;29;20034;-76
2022/04/16 09:37:15;;;;;;;413.20;217.55;;;;;;;;;;4958044;29;20019;-76
2022/04/16 09:39:41;;;;;;;107.97;55.47;;;;;;;;;;4957735;29;20030;-76
2022/04/16 09:42:06;;;;;;;105.25;53.67;;;;;;;;;;4957645;29;20126;-76
2022/04/16 09:44:32;;;;;;;438.20;256.70;;;;;;;;;;4940869;29;20035;-76
2022/04/16 09:46:57;;;;;;;93.18;50.83;;;;;;;;;;4972483;28;20019;-76
2022/04/16 09:49:24;;;;;;;167.93;89.18;;;;;;;;;;4957761;29;20035;-76
2022/04/16 09:51:49;;;;;;;106.43;52.53;;;;;;;;;;4957789;29;20054;-76
2022/04/16 09:54:15;;;;;;;158.75;97.65;;;;;;;;;;4940252;29;20058;-76
2022/04/16 09:56:42;;;;;;;137.48;75.85;;;;;;;;;;4941066;29;20027;-76
2022/04/16 09:59:08;;;;;;;88.93;49.88;;;;;;;;;;4940603;29;20038;-76
2022/04/16 10:01:34;;;;;;;63.13;40.15;;;;;;;;;;4957346;29;20106;-76
2022/04/16 10:04:03;;;;;;;36.17;24.30;;;;;;;;;;4957592;29;20035;-76
2022/04/16 10:06:29;;;;;;;75.55;43.55;;;;;;;;;;4957261;29;20074;-76
2022/04/16 10:08:55;;;;;;;79.18;50.47;;;;;;;;;;4957140;29;20391;-77
2022/04/16 10:11:42;;;;;;;46.85;30.35;;;;;;;;;;4957144;29;20020;-76
2022/04/16 10:14:10;;;;;;;71.22;43.38;;;;;;;;;;4957081;29;20490;-77
2022/04/16 10:16:38;;;;;;;112.03;66.18;;;;;;;;;;4923992;29;20023;-77
2022/04/16 10:19:13;;;;;;;64.40;45.70;;;;;;;;;;4939918;29;20035;-76
2022/04/16 10:21:41;;;;;;;5.75;5.20;;;;;;;;;;4956950;29;20047;-76
2022/04/16 10:24:06;;;;;;;38.88;26.63;;;;;;;;;;4957204;29;20046;-76
2022/04/16 10:26:38;;;;;;;13.88;12.15;;;;;;;;;;4956838;29;20035;-76
2022/04/16 10:29:04;;;;;;;47.13;29.10;;;;;;;;;;4971580;28;20027;-76
2022/04/16 10:31:30;;;;;;;20.42;15.65;;;;;;;;;;4957052;29;20033;-76
2022/04/16 10:33:57;;;;;;;25.38;19.75;;;;;;;;;;4956741;29;20467;-76
2022/04/16 10:36:45;;;;;;;6.50;6.00;;;;;;;;;;4971567;28;20082;-77
2022/04/16 10:39:15;;;;;;;14.48;12.88;;;;;;;;;;4936635;29;20146;-77
2022/04/16 10:41:51;;;;;;;14.43;13.13;;;;;;;;;;4956561;29;20066;-76
2022/04/16 10:44:16;;;;;;;15.82;9.25;;;;;;;;;;4956125;28;20035;-76
2022/04/16 10:46:44;;;;;;;11.48;10.30;;;;;;;;;;4939635;29;20042;-76
2022/04/16 10:49:20;;;;;;;15.07;11.95;;;;;;;;;;4971241;28;20044;-76
2022/04/16 10:51:45;;;;;;;11.27;10.18;;;;;;;;;;4939160;29;20037;-76
2022/04/16 10:54:12;;;;;;;7.90;7.35;;;;;;;;;;4956356;29;20110;-76
2022/04/16 10:56:40;;;;;;;5.47;5.03;;;;;;;;;;4956308;29;20019;-76
2022/04/16 10:59:05;;;;;;;14.52;9.85;;;;;;;;;;4939048;29;20131;-76
2022/04/16 11:01:31;;;;;;;20.80;13.20;;;;;;;;;;4939087;29;20499;-76
2022/04/16 11:03:57;;;;;;;11.75;10.73;;;;;;;;;;4956499;29;20058;-76
2022/04/16 11:06:34;;;;;;;6.70;6.22;;;;;;;;;;4956419;29;20364;-74
2022/04/16 11:09:00;;;;;;;27.58;14.68;;;;;;;;;;4939541;29;20063;-74
2022/04/16 11:11:25;;;;;;;29.85;17.98;;;;;;;;;;4956051;29;20027;-74
2022/04/16 11:13:51;;;;;;;4.55;4.15;;;;;;;;;;4970842;28;20019;-74
2022/04/16 11:16:20;;;;;;;3.70;3.50;;;;;;;;;;4923096;29;20023;-74
2022/04/16 11:18:47;;;;;;;18.52;13.50;;;;;;;;;;4956227;29;20059;-76
2022/04/16 11:21:18;;;;;;;19.38;13.77;;;;;;;;;;4956451;29;20037;-76
2022/04/16 11:23:47;;;;;;;7.22;3.88;;;;;;;;;;4939098;29;20070;-76
2022/04/16 11:34:30;;;;;;;8.45;5.00;;;;;;;;;;4938513;29;20094;-74
2022/04/16 11:36:58;;;;;;;3.85;3.08;;;;;;;;;;4956291;29;20023;-74
2022/04/16 11:39:25;;;;;;;9.13;6.63;;;;;;;;;;4955699;29;20031;-74
2022/04/16 11:41:52;;;;;;;3.85;3.35;;;;;;;;;;4955960;28;20134;-74
2022/04/16 11:44:44;;;;;;;2.10;2.00;;;;;;;;;;4938439;29;20078;-74
2022/04/16 11:47:13;;;;;;;2.80;2.15;;;;;;;;;;4956115;29;20493;-74
2022/04/16 11:49:49;;;;;;;2.60;2.40;;;;;;;;;;4955787;29;20075;-74
2022/04/16 11:52:14;;;;;;;15.85;8.68;;;;;;;;;;4955488;29;20032;-74
2022/04/16 11:54:40;;;;;;;3.30;3.00;;;;;;;;;;4938177;29;20024;-75
2022/04/16 11:57:05;;;;;;;4.03;3.72;;;;;;;;;;4955780;29;20035;-74
2022/04/16 11:59:31;;;;;;;9.05;6.60;;;;;;;;;;4938620;29;20023;-74
2022/04/16 12:02:07;;;;;;;35.80;20.80;;;;;;;;;;4955707;29;20403;-74
2022/04/16 12:04:42;;;;;;;23.42;14.93;;;;;;;;;;4955689;29;20467;-74
2022/04/16 12:07:11;;;;;;;2.20;2.00;;;;;;;;;;4955694;29;20082;-74
2022/04/16 12:09:36;;;;;;;4.68;4.28;;;;;;;;;;4938473;29;20023;-74
2022/04/16 12:12:05;;;;;;;2.03;1.77;;;;;;;;;;4955798;29;20032;-74
2022/04/16 12:14:30;;;;;;;3.50;2.67;;;;;;;;;;4955371;29;20058;-74
2022/04/16 12:16:59;;;;;;;4.00;3.65;;;;;;;;;;4955326;29;20440;-74
2022/04/16 12:19:33;;;;;;;9.20;3.40;;;;;;;;;;4955546;29;20087;-74
2022/04/16 12:21:59;;;;;;;2.95;2.65;;;;;;;;;;4955313;29;20031;-74
2022/04/16 12:24:25;;;;;;;2.13;2.03;;;;;;;;;;4938358;29;20023;-75
2022/04/16 12:26:51;;;;;;;3.60;3.33;;;;;;;;;;4955237;28;20035;-74
2022/04/16 12:29:18;;;;;;;3.97;3.08;;;;;;;;;;4970355;28;20026;-74
2022/04/16 12:31:54;;;;;;;3.83;3.45;;;;;;;;;;4937996;29;20027;-74
2022/04/16 12:34:20;;;;;;;17.17;13.02;;;;;;;;;;4938398;29;20031;-74
2022/04/16 12:36:45;;;;;;;5.93;4.38;;;;;;;;;;4938024;29;20027;-74
2022/04/16 12:39:10;;;;;;;3.85;3.45;;;;;;;;;;4955665;29;20050;-74
2022/04/16 12:41:38;;;;;;;2.30;2.10;;;;;;;;;;4954951;29;20067;-74
2022/04/16 12:44:03;;;;;;;3.85;2.30;;;;;;;;;;4955057;29;20471;-74
2022/04/16 12:46:28;;;;;;;4.15;2.50;;;;;;;;;;4955610;29;20110;-74
2022/04/16 12:48:54;;;;;;;3.80;3.08;;;;;;;;;;4955254;29;20039;-75
2022/04/16 12:51:19;;;;;;;2.85;2.60;;;;;;;;;;4922060;29;20046;-74
2022/04/16 12:53:45;;;;;;;2.88;2.67;;;;;;;;;;4954954;29;20028;-74
2022/04/16 12:56:10;;;;;;;2.33;2.17;;;;;;;;;;4969918;28;20027;-74
2022/04/16 12:58:35;;;;;;;1.92;1.83;;;;;;;;;;4969749;28;20479;-75
2022/04/16 13:01:01;;;;;;;1.35;1.25;;;;;;;;;;4955192;29;20098;-74
2022/04/16 13:03:26;;;;;;;2.60;2.40;;;;;;;;;;4937729;29;20467;-74
2022/04/16 13:05:51;;;;;;;2.40;2.00;;;;;;;;;;4955130;28;20455;-74
2022/04/16 13:08:17;;;;;;;3.00;2.80;;;;;;;;;;4941036;29;20039;-74
2022/04/16 13:10:43;;;;;;;4.40;4.10;;;;;;;;;;4941435;29;20034;-74
2022/04/16 13:13:08;;;;;;;25.25;13.35;;;;;;;;;;4958795;29;20051;-74
2022/04/16 13:15:33;;;;;;;4.22;3.92;;;;;;;;;;4958176;29;20421;-74
2022/04/16 13:17:59;;;;;;;3.10;2.90;;;;;;;;;;4958163;29;20057;-74
2022/04/16 13:20:24;;;;;;;3.50;2.88;;;;;;;;;;4941213;29;20027;-74
2022/04/16 13:22:50;;;;;;;3.50;3.20;;;;;;;;;;4958097;29;20039;-74
2022/04/16 13:25:16;;;;;;;9.25;5.70;;;;;;;;;;4958047;29;20028;-75
2022/04/16 13:27:42;;;;;;;3.00;2.80;;;;;;;;;;4958161;29;20428;-75
2022/04/16 13:30:08;;;;;;;3.83;2.33;;;;;;;;;;4941120;29;20050;-75
2022/04/16 13:32:33;;;;;;;2.15;1.88;;;;;;;;;;4957904;29;20039;-74
2022/04/16 13:34:58;;;;;;;3.63;2.58;;;;;;;;;;4958150;29;20023;-75
2022/04/16 13:37:24;;;;;;;2.67;2.45;;;;;;;;;;4958111;29;20023;-74
2022/04/16 13:42:33;;;;;;;2.45;2.25;;;;;;;;;;4957606;29;20051;-74
2022/04/16 13:44:59;;;;;;;2.05;1.95;;;;;;;;;;4956447;29;20069;-75
2022/04/16 13:47:24;;;;;;;8.63;6.28;;;;;;;;;;4957575;29;20395;-75
2022/04/16 13:49:49;;;;;;;15.05;10.15;;;;;;;;;;4957629;29;20431;-75
2022/04/16 13:52:16;;;;;;;3.90;3.30;;;;;;;;;;4973027;28;20038;-74
2022/04/16 13:54:44;;;;;;;19.35;11.85;;;;;;;;;;4957511;29;20077;-75
2022/04/16 13:57:10;;;;;;;3.88;3.55;;;;;;;;;;4940762;29;20069;-74
2022/04/16 13:59:36;;;;;;;1.70;1.60;;;;;;;;;;4957948;29;20408;-74
2022/04/16 14:02:02;;;;;;;6.38;4.80;;;;;;;;;;4940481;29;20046;-74
2022/04/16 14:05:42;;;;;;;7.45;5.90;;;;;;;;;;4940213;29;20023;-74
2022/04/16 14:07:12;;;;;;;29.88;19.05;;;;;;;;;;4957288;28;20042;-75
2022/04/16 14:09:38;;;;;;;10.95;8.38;;;;;;;;;;4957161;29;20378;-75
2022/04/16 14:12:04;;;;;;;28.73;17.02;;;;;;;;;;4957424;29;20019;-74
2022/04/16 14:14:31;;;;;;;30.73;15.57;;;;;;;;;;4957134;29;20070;-75
2022/04/16 14:16:57;;;;;;;3.85;2.58;;;;;;;;;;4957112;29;20114;-75
2022/04/16 14:19:22;;;;;;;5.25;4.85;;;;;;;;;;4923385;29;20077;-75
2022/04/16 14:21:47;;;;;;;7.43;6.72;;;;;;;;;;4971805;28;20032;-75
2022/04/16 14:24:13;;;;;;;11.60;8.57;;;;;;;;;;4971872;28;20383;-75
2022/04/16 14:26:39;;;;;;;5.45;4.32;;;;;;;;;;4939888;29;20480;-75
2022/04/16 14:29:04;;;;;;;8.07;6.70;;;;;;;;;;4957049;29;20059;-75
2022/04/16 14:31:30;;;;;;;16.10;10.35;;;;;;;;;;4956843;29;20106;-75
2022/04/16 14:33:55;;;;;;;15.48;9.27;;;;;;;;;;4939872;29;20054;-75
2022/04/16 14:36:21;;;;;;;21.60;13.50;;;;;;;;;;4956675;29;20054;-75
2022/04/16 14:38:46;;;;;;;11.45;8.52;;;;;;;;;;4956656;29;20063;-75
2022/04/16 14:41:13;;;;;;;5.57;3.90;;;;;;;;;;4939503;29;20047;-75
2022/04/16 14:43:40;;;;;;;5.38;2.90;;;;;;;;;;4939342;29;20402;-75
2022/04/16 14:46:05;;;;;;;3.58;2.97;;;;;;;;;;4956801;29;20468;-75
2022/04/16 14:48:31;;;;;;;4.07;2.90;;;;;;;;;;4956419;29;20078;-75